07:56
Airports
History
Links
Donate
Help keep this website running!
PayPal
Bitcoin
This page is community maintained. The information is intended for PC simulator navigation or reference.
Always use approved charts for navigation.
PS38
Berts
Berts (PS38)
Birdsboro - Pottstown, Pennsylvania, United States (19518)
4
Lat/Lng:40° 17' 8.34" N / 75° 44' 53.69" W
40.285649 / -75.748247
Elevation:240'ft / 73mMSL
ID / ICAO:PS38
Runways:1
Longest:08-26
Grass 692m / 2,270ft
Nearby Weather07:17 GMT 2018-02-25
Nearby weather at KPTW, Heritage Field located 10.6 nautical miles from PS38
Altimeter: 30.12
Visibility: 2.0 statute miles
Wind: 3 knots (from 090°)
Temp: 6°c / 43°f
Humidity: 100.0%

METAR: KPTW 250717Z AUTO 09003KT 2SM RA BR OVC005 06/06 A3012 RMK AO2 P0004 T00610061

(Powered by phpweather)
Nearby VORs <50NM
Nearby NDBs
Runway 08 / 26
Dimensions:692 x 30.5m 2270' x 100'ft
Surface:Grass
Runway 08 [A]Runway 26 [B]
Heading:069°TH 249°TH
Lat:
Lng:
40° 17' 4.33"N
75° 45' 7.37"W
40° 17' 12.34"N
75° 44' 40.01"W
User Notes and Comments
40° 17' 8.34" N / 75° 44' 53.69" W
Distance To
Airport ID:
Nearby Airports
(U) Pottstown Muni 4.4 NM
N47 ESE 113°
(R) Dimascio Field 4.7 NM
14PA E 85°
(R) Arnold 7.2 NM
PA43 W 259°
4 New Hanover 8.4 NM
N62 E 83°
4 Emery Field 9.6 NM
12PA SE 133°
4 Hansen 9.8 NM
5PS4 ENE 66°
(U) Heritage Field 10.6 NM
KPTW ( WX ) ESE 107°
VFR Chart
Flight Planning at SkyVector.com